sensor_id;sensor_type;location;lat;lon;timestamp;P1;durP1;ratioP1;P2;durP2;ratioP2
14688;SDS011;7432;48.728;9.154;2022-08-11T00:02:16;4.63;;;4.30;;
14688;SDS011;7432;48.728;9.154;2022-08-11T00:04:49;4.30;;;4.00;;
14688;SDS011;7432;48.728;9.154;2022-08-11T00:07:15;4.43;;;4.10;;
14688;SDS011;7432;48.728;9.154;2022-08-11T00:09:43;4.30;;;4.00;;
14688;SDS011;7432;48.728;9.154;2022-08-11T00:12:11;4.63;;;4.33;;
14688;SDS011;7432;48.728;9.154;2022-08-11T00:14:39;4.60;;;4.30;;
14688;SDS011;7432;48.728;9.154;2022-08-11T00:17:07;4.40;;;4.10;;
14688;SDS011;7432;48.728;9.154;2022-08-11T00:19:38;4.40;;;4.03;;
14688;SDS011;7432;48.728;9.154;2022-08-11T00:22:07;6.43;;;4.40;;
14688;SDS011;7432;48.728;9.154;2022-08-11T00:24:35;4.53;;;4.23;;
14688;SDS011;7432;48.728;9.154;2022-08-11T00:27:03;4.57;;;4.17;;
14688;SDS011;7432;48.728;9.154;2022-08-11T00:29:30;4.40;;;4.00;;
14688;SDS011;7432;48.728;9.154;2022-08-11T00:31:59;4.67;;;4.17;;
14688;SDS011;7432;48.728;9.154;2022-08-11T00:34:28;4.70;;;4.40;;
14688;SDS011;7432;48.728;9.154;2022-08-11T00:37:00;4.70;;;4.37;;
14688;SDS011;7432;48.728;9.154;2022-08-11T00:39:29;5.43;;;4.20;;
14688;SDS011;7432;48.728;9.154;2022-08-11T00:42:08;4.50;;;4.20;;
14688;SDS011;7432;48.728;9.154;2022-08-11T00:44:44;4.53;;;4.13;;
14688;SDS011;7432;48.728;9.154;2022-08-11T00:47:23;5.43;;;4.00;;
14688;SDS011;7432;48.728;9.154;2022-08-11T00:50:03;4.83;;;4.40;;
14688;SDS011;7432;48.728;9.154;2022-08-11T00:55:39;4.70;;;4.37;;
14688;SDS011;7432;48.728;9.154;2022-08-11T00:58:46;5.07;;;4.60;;
14688;SDS011;7432;48.728;9.154;2022-08-11T01:01:33;6.30;;;4.60;;
14688;SDS011;7432;48.728;9.154;2022-08-11T01:04:22;4.73;;;4.43;;
14688;SDS011;7432;48.728;9.154;2022-08-11T01:10:31;4.80;;;4.40;;
14688;SDS011;7432;48.728;9.154;2022-08-11T01:13:14;4.47;;;4.13;;
14688;SDS011;7432;48.728;9.154;2022-08-11T01:16:12;4.90;;;4.40;;
14688;SDS011;7432;48.728;9.154;2022-08-11T01:22:34;4.43;;;4.13;;
14688;SDS011;7432;48.728;9.154;2022-08-11T01:31:44;4.80;;;4.50;;
14688;SDS011;7432;48.728;9.154;2022-08-11T01:40:50;4.83;;;4.37;;
14688;SDS011;7432;48.728;9.154;2022-08-11T01:43:31;5.43;;;4.70;;
14688;SDS011;7432;48.728;9.154;2022-08-11T01:46:34;4.60;;;4.30;;
14688;SDS011;7432;48.728;9.154;2022-08-11T01:49:09;4.70;;;4.30;;
14688;SDS011;7432;48.728;9.154;2022-08-11T01:51:45;4.87;;;4.50;;
14688;SDS011;7432;48.728;9.154;2022-08-11T01:54:32;5.03;;;4.53;;
14688;SDS011;7432;48.728;9.154;2022-08-11T01:57:09;5.10;;;4.70;;
14688;SDS011;7432;48.728;9.154;2022-08-11T01:59:46;4.70;;;4.40;;
14688;SDS011;7432;48.728;9.154;2022-08-11T02:02:26;4.73;;;4.37;;
14688;SDS011;7432;48.728;9.154;2022-08-11T02:05:16;6.73;;;4.60;;
14688;SDS011;7432;48.728;9.154;2022-08-11T02:07:53;5.10;;;4.70;;
14688;SDS011;7432;48.728;9.154;2022-08-11T02:10:28;4.73;;;4.43;;
14688;SDS011;7432;48.728;9.154;2022-08-11T02:13:20;5.23;;;4.83;;
14688;SDS011;7432;48.728;9.154;2022-08-11T02:16:02;5.53;;;5.23;;
14688;SDS011;7432;48.728;9.154;2022-08-11T02:18:37;5.00;;;4.67;;
14688;SDS011;7432;48.728;9.154;2022-08-11T02:21:26;5.17;;;4.67;;
14688;SDS011;7432;48.728;9.154;2022-08-11T02:24:18;5.07;;;4.60;;
14688;SDS011;7432;48.728;9.154;2022-08-11T02:26:52;5.23;;;4.80;;
14688;SDS011;7432;48.728;9.154;2022-08-11T02:29:28;4.90;;;4.60;;
14688;SDS011;7432;48.728;9.154;2022-08-11T02:32:04;5.37;;;4.80;;
14688;SDS011;7432;48.728;9.154;2022-08-11T02:34:55;5.40;;;4.90;;
14688;SDS011;7432;48.728;9.154;2022-08-11T02:37:31;5.17;;;4.77;;
14688;SDS011;7432;48.728;9.154;2022-08-11T02:40:10;6.13;;;4.97;;
14688;SDS011;7432;48.728;9.154;2022-08-11T02:42:49;7.17;;;5.27;;
14688;SDS011;7432;48.728;9.154;2022-08-11T02:45:33;7.40;;;5.17;;
14688;SDS011;7432;48.728;9.154;2022-08-11T02:48:20;5.23;;;4.90;;
14688;SDS011;7432;48.728;9.154;2022-08-11T02:51:14;5.13;;;4.70;;
14688;SDS011;7432;48.728;9.154;2022-08-11T02:53:50;7.43;;;4.40;;
14688;SDS011;7432;48.728;9.154;2022-08-11T02:56:26;5.90;;;5.30;;
14688;SDS011;7432;48.728;9.154;2022-08-11T02:59:03;5.23;;;4.93;;
14688;SDS011;7432;48.728;9.154;2022-08-11T03:01:52;4.97;;;4.57;;
14688;SDS011;7432;48.728;9.154;2022-08-11T03:04:26;6.00;;;5.50;;
14688;SDS011;7432;48.728;9.154;2022-08-11T03:07:04;6.20;;;5.70;;
14688;SDS011;7432;48.728;9.154;2022-08-11T03:09:41;5.30;;;4.90;;
14688;SDS011;7432;48.728;9.154;2022-08-11T03:12:15;5.63;;;5.17;;
14688;SDS011;7432;48.728;9.154;2022-08-11T03:15:06;6.07;;;5.67;;
14688;SDS011;7432;48.728;9.154;2022-08-11T03:17:57;6.50;;;6.00;;
14688;SDS011;7432;48.728;9.154;2022-08-11T03:20:31;5.70;;;5.00;;
14688;SDS011;7432;48.728;9.154;2022-08-11T03:23:06;5.70;;;4.93;;
14688;SDS011;7432;48.728;9.154;2022-08-11T03:25:37;5.90;;;5.50;;
14688;SDS011;7432;48.728;9.154;2022-08-11T03:28:17;5.60;;;5.20;;
14688;SDS011;7432;48.728;9.154;2022-08-11T03:30:53;5.70;;;5.17;;
14688;SDS011;7432;48.728;9.154;2022-08-11T03:33:27;5.50;;;5.10;;
14688;SDS011;7432;48.728;9.154;2022-08-11T03:36:16;5.30;;;5.00;;
14688;SDS011;7432;48.728;9.154;2022-08-11T03:38:56;5.80;;;5.37;;
14688;SDS011;7432;48.728;9.154;2022-08-11T03:41:31;6.17;;;5.67;;
14688;SDS011;7432;48.728;9.154;2022-08-11T03:44:18;5.73;;;5.23;;
14688;SDS011;7432;48.728;9.154;2022-08-11T03:46:56;5.90;;;5.43;;
14688;SDS011;7432;48.728;9.154;2022-08-11T03:49:35;5.60;;;5.20;;
14688;SDS011;7432;48.728;9.154;2022-08-11T03:52:25;5.37;;;4.97;;
14688;SDS011;7432;48.728;9.154;2022-08-11T03:55:00;5.90;;;5.50;;
14688;SDS011;7432;48.728;9.154;2022-08-11T03:57:51;5.00;;;4.60;;
14688;SDS011;7432;48.728;9.154;2022-08-11T04:00:46;6.13;;;5.73;;
14688;SDS011;7432;48.728;9.154;2022-08-11T04:03:43;5.63;;;5.20;;
14688;SDS011;7432;48.728;9.154;2022-08-11T04:12:35;5.90;;;5.50;;
14688;SDS011;7432;48.728;9.154;2022-08-11T04:15:12;6.17;;;5.67;;
14688;SDS011;7432;48.728;9.154;2022-08-11T04:21:44;7.53;;;5.77;;
14688;SDS011;7432;48.728;9.154;2022-08-11T04:24:26;5.93;;;5.50;;
14688;SDS011;7432;48.728;9.154;2022-08-11T04:27:23;6.03;;;5.50;;
14688;SDS011;7432;48.728;9.154;2022-08-11T04:30:02;7.80;;;6.00;;
14688;SDS011;7432;48.728;9.154;2022-08-11T04:35:37;5.70;;;5.20;;
14688;SDS011;7432;48.728;9.154;2022-08-11T04:38:26;14.27;;;7.07;;
14688;SDS011;7432;48.728;9.154;2022-08-11T04:41:18;6.37;;;5.97;;
14688;SDS011;7432;48.728;9.154;2022-08-11T04:47:21;6.40;;;5.90;;
14688;SDS011;7432;48.728;9.154;2022-08-11T04:50:29;6.17;;;5.77;;
14688;SDS011;7432;48.728;9.154;2022-08-11T04:53:33;5.63;;;5.23;;
14688;SDS011;7432;48.728;9.154;2022-08-11T04:56:29;6.17;;;5.67;;
14688;SDS011;7432;48.728;9.154;2022-08-11T04:59:31;7.00;;;6.50;;
14688;SDS011;7432;48.728;9.154;2022-08-11T05:05:34;7.00;;;6.40;;
14688;SDS011;7432;48.728;9.154;2022-08-11T05:11:36;6.33;;;5.70;;
14688;SDS011;7432;48.728;9.154;2022-08-11T05:14:25;6.17;;;5.57;;
14688;SDS011;7432;48.728;9.154;2022-08-11T05:17:13;6.03;;;5.63;;
14688;SDS011;7432;48.728;9.154;2022-08-11T05:20:00;7.27;;;6.43;;
14688;SDS011;7432;48.728;9.154;2022-08-11T05:22:46;6.37;;;5.77;;
14688;SDS011;7432;48.728;9.154;2022-08-11T05:25:33;5.60;;;5.10;;
14688;SDS011;7432;48.728;9.154;2022-08-11T05:28:21;5.87;;;5.37;;
14688;SDS011;7432;48.728;9.154;2022-08-11T05:31:15;6.47;;;5.90;;
14688;SDS011;7432;48.728;9.154;2022-08-11T05:34:02;6.73;;;6.30;;
14688;SDS011;7432;48.728;9.154;2022-08-11T05:36:53;7.10;;;6.40;;
14688;SDS011;7432;48.728;9.154;2022-08-11T05:39:25;6.13;;;5.70;;
14688;SDS011;7432;48.728;9.154;2022-08-11T05:42:12;6.00;;;5.50;;
14688;SDS011;7432;48.728;9.154;2022-08-11T05:45:03;6.30;;;5.90;;
14688;SDS011;7432;48.728;9.154;2022-08-11T05:47:52;6.90;;;6.30;;
14688;SDS011;7432;48.728;9.154;2022-08-11T05:50:37;8.73;;;5.87;;
14688;SDS011;7432;48.728;9.154;2022-08-11T05:53:22;7.57;;;6.60;;
14688;SDS011;7432;48.728;9.154;2022-08-11T05:56:08;6.20;;;5.70;;
14688;SDS011;7432;48.728;9.154;2022-08-11T05:58:45;6.43;;;5.93;;
14688;SDS011;7432;48.728;9.154;2022-08-11T06:01:21;6.20;;;5.70;;
14688;SDS011;7432;48.728;9.154;2022-08-11T06:03:49;7.10;;;6.50;;
14688;SDS011;7432;48.728;9.154;2022-08-11T06:06:38;6.53;;;6.00;;
14688;SDS011;7432;48.728;9.154;2022-08-11T06:09:11;7.30;;;6.60;;
14688;SDS011;7432;48.728;9.154;2022-08-11T06:11:40;8.30;;;6.20;;
14688;SDS011;7432;48.728;9.154;2022-08-11T06:14:08;7.17;;;6.47;;
14688;SDS011;7432;48.728;9.154;2022-08-11T06:16:37;7.47;;;6.67;;
14688;SDS011;7432;48.728;9.154;2022-08-11T06:19:06;7.57;;;6.97;;
14688;SDS011;7432;48.728;9.154;2022-08-11T06:21:34;7.95;;;7.38;;
14688;SDS011;7432;48.728;9.154;2022-08-11T06:24:02;7.10;;;6.47;;
14688;SDS011;7432;48.728;9.154;2022-08-11T06:26:31;7.32;;;6.82;;
14688;SDS011;7432;48.728;9.154;2022-08-11T06:28:58;8.13;;;7.18;;
14688;SDS011;7432;48.728;9.154;2022-08-11T06:31:27;7.55;;;6.85;;
14688;SDS011;7432;48.728;9.154;2022-08-11T06:33:57;7.03;;;6.53;;
14688;SDS011;7432;48.728;9.154;2022-08-11T06:36:37;7.05;;;6.45;;
14688;SDS011;7432;48.728;9.154;2022-08-11T06:39:12;7.45;;;6.78;;
14688;SDS011;7432;48.728;9.154;2022-08-11T06:41:47;6.85;;;6.25;;
14688;SDS011;7432;48.728;9.154;2022-08-11T06:44:20;8.32;;;6.85;;
14688;SDS011;7432;48.728;9.154;2022-08-11T06:46:52;7.75;;;7.00;;
14688;SDS011;7432;48.728;9.154;2022-08-11T06:49:31;8.70;;;7.80;;
14688;SDS011;7432;48.728;9.154;2022-08-11T06:52:16;8.20;;;7.40;;
14688;SDS011;7432;48.728;9.154;2022-08-11T06:54:48;7.90;;;7.00;;
14688;SDS011;7432;48.728;9.154;2022-08-11T06:57:21;7.90;;;7.30;;
14688;SDS011;7432;48.728;9.154;2022-08-11T07:00:06;7.68;;;6.93;;
14688;SDS011;7432;48.728;9.154;2022-08-11T07:02:52;7.00;;;6.50;;
14688;SDS011;7432;48.728;9.154;2022-08-11T07:05:27;7.40;;;6.90;;
14688;SDS011;7432;48.728;9.154;2022-08-11T07:08:13;7.68;;;7.10;;
14688;SDS011;7432;48.728;9.154;2022-08-11T07:11:14;7.00;;;6.60;;
14688;SDS011;7432;48.728;9.154;2022-08-11T07:14:29;7.55;;;6.88;;
14688;SDS011;7432;48.728;9.154;2022-08-11T07:17:14;8.02;;;7.28;;
14688;SDS011;7432;48.728;9.154;2022-08-11T07:19:45;8.30;;;7.50;;
14688;SDS011;7432;48.728;9.154;2022-08-11T07:22:35;8.02;;;7.32;;
14688;SDS011;7432;48.728;9.154;2022-08-11T07:25:28;8.00;;;7.47;;
14688;SDS011;7432;48.728;9.154;2022-08-11T07:28:16;7.75;;;7.18;;
14688;SDS011;7432;48.728;9.154;2022-08-11T07:31:06;7.72;;;7.05;;
14688;SDS011;7432;48.728;9.154;2022-08-11T07:33:39;8.20;;;7.65;;
14688;SDS011;7432;48.728;9.154;2022-08-11T07:36:09;8.45;;;7.63;;
14688;SDS011;7432;48.728;9.154;2022-08-11T07:38:39;9.23;;;8.10;;
14688;SDS011;7432;48.728;9.154;2022-08-11T07:41:08;8.20;;;7.60;;
14688;SDS011;7432;48.728;9.154;2022-08-11T07:43:36;8.00;;;7.40;;
14688;SDS011;7432;48.728;9.154;2022-08-11T07:46:03;7.85;;;7.38;;
14688;SDS011;7432;48.728;9.154;2022-08-11T07:48:49;8.82;;;8.02;;
14688;SDS011;7432;48.728;9.154;2022-08-11T07:51:34;7.90;;;7.28;;
14688;SDS011;7432;48.728;9.154;2022-08-11T07:54:20;7.93;;;7.20;;
14688;SDS011;7432;48.728;9.154;2022-08-11T07:56:47;34.55;;;8.80;;
14688;SDS011;7432;48.728;9.154;2022-08-11T07:59:15;8.30;;;7.47;;
14688;SDS011;7432;48.728;9.154;2022-08-11T08:02:00;8.23;;;7.70;;
14688;SDS011;7432;48.728;9.154;2022-08-11T08:04:45;8.25;;;7.60;;
14688;SDS011;7432;48.728;9.154;2022-08-11T08:07:30;8.32;;;7.60;;
14688;SDS011;7432;48.728;9.154;2022-08-11T08:10:17;7.82;;;7.32;;
14688;SDS011;7432;48.728;9.154;2022-08-11T08:13:02;8.23;;;7.60;;
14688;SDS011;7432;48.728;9.154;2022-08-11T08:15:46;8.50;;;7.95;;
14688;SDS011;7432;48.728;9.154;2022-08-11T08:18:32;8.18;;;7.57;;
14688;SDS011;7432;48.728;9.154;2022-08-11T08:20:59;8.07;;;7.28;;
14688;SDS011;7432;48.728;9.154;2022-08-11T08:23:36;8.43;;;7.72;;
14688;SDS011;7432;48.728;9.154;2022-08-11T08:26:06;8.10;;;7.50;;
14688;SDS011;7432;48.728;9.154;2022-08-11T08:28:54;7.93;;;7.35;;
14688;SDS011;7432;48.728;9.154;2022-08-11T08:31:42;7.65;;;7.07;;
14688;SDS011;7432;48.728;9.154;2022-08-11T08:34:09;7.97;;;7.30;;
14688;SDS011;7432;48.728;9.154;2022-08-11T08:36:36;7.82;;;7.13;;
14688;SDS011;7432;48.728;9.154;2022-08-11T08:39:07;8.10;;;7.45;;
14688;SDS011;7432;48.728;9.154;2022-08-11T08:41:35;7.72;;;7.22;;
14688;SDS011;7432;48.728;9.154;2022-08-11T08:44:07;7.85;;;7.18;;
14688;SDS011;7432;48.728;9.154;2022-08-11T08:46:35;7.10;;;6.70;;
14688;SDS011;7432;48.728;9.154;2022-08-11T08:49:05;7.60;;;6.90;;
14688;SDS011;7432;48.728;9.154;2022-08-11T08:51:36;7.20;;;6.65;;
14688;SDS011;7432;48.728;9.154;2022-08-11T08:54:06;7.65;;;7.22;;
14688;SDS011;7432;48.728;9.154;2022-08-11T08:56:38;7.43;;;6.82;;
14688;SDS011;7432;48.728;9.154;2022-08-11T08:59:06;7.38;;;6.80;;
14688;SDS011;7432;48.728;9.154;2022-08-11T09:01:35;7.28;;;6.80;;
14688;SDS011;7432;48.728;9.154;2022-08-11T09:04:06;7.70;;;6.95;;
14688;SDS011;7432;48.728;9.154;2022-08-11T09:06:34;7.47;;;6.97;;
14688;SDS011;7432;48.728;9.154;2022-08-11T09:09:03;7.32;;;6.80;;
14688;SDS011;7432;48.728;9.154;2022-08-11T09:11:32;7.75;;;7.20;;
14688;SDS011;7432;48.728;9.154;2022-08-11T09:14:20;7.68;;;7.13;;
14688;SDS011;7432;48.728;9.154;2022-08-11T09:16:47;7.50;;;6.97;;
14688;SDS011;7432;48.728;9.154;2022-08-11T09:19:15;7.13;;;6.72;;
14688;SDS011;7432;48.728;9.154;2022-08-11T09:21:45;7.70;;;7.20;;
14688;SDS011;7432;48.728;9.154;2022-08-11T09:24:36;7.38;;;6.85;;
14688;SDS011;7432;48.728;9.154;2022-08-11T09:27:22;7.57;;;7.18;;
14688;SDS011;7432;48.728;9.154;2022-08-11T09:29:50;7.80;;;7.30;;
14688;SDS011;7432;48.728;9.154;2022-08-11T09:32:18;7.10;;;6.60;;
14688;SDS011;7432;48.728;9.154;2022-08-11T09:34:45;8.05;;;7.25;;
14688;SDS011;7432;48.728;9.154;2022-08-11T09:37:12;8.00;;;7.22;;
14688;SDS011;7432;48.728;9.154;2022-08-11T09:39:57;7.55;;;6.90;;
14688;SDS011;7432;48.728;9.154;2022-08-11T09:42:41;7.22;;;6.65;;
14688;SDS011;7432;48.728;9.154;2022-08-11T09:45:27;7.72;;;7.22;;
14688;SDS011;7432;48.728;9.154;2022-08-11T09:47:54;7.85;;;7.18;;
14688;SDS011;7432;48.728;9.154;2022-08-11T09:50:22;8.18;;;7.68;;
14688;SDS011;7432;48.728;9.154;2022-08-11T09:52:48;7.68;;;7.07;;
14688;SDS011;7432;48.728;9.154;2022-08-11T09:55:15;7.40;;;6.78;;
14688;SDS011;7432;48.728;9.154;2022-08-11T09:57:44;7.10;;;6.70;;
14688;SDS011;7432;48.728;9.154;2022-08-11T10:00:31;7.35;;;6.82;;
14688;SDS011;7432;48.728;9.154;2022-08-11T10:03:01;6.80;;;6.40;;
14688;SDS011;7432;48.728;9.154;2022-08-11T10:05:31;6.70;;;6.30;;
14688;SDS011;7432;48.728;9.154;2022-08-11T10:08:16;7.63;;;6.97;;
14688;SDS011;7432;48.728;9.154;2022-08-11T10:10:43;8.45;;;7.30;;
14688;SDS011;7432;48.728;9.154;2022-08-11T10:13:13;7.30;;;6.65;;
14688;SDS011;7432;48.728;9.154;2022-08-11T10:15:44;6.88;;;6.47;;
14688;SDS011;7432;48.728;9.154;2022-08-11T10:18:12;7.35;;;6.28;;
14688;SDS011;7432;48.728;9.154;2022-08-11T10:20:59;6.55;;;6.25;;
14688;SDS011;7432;48.728;9.154;2022-08-11T10:23:29;7.38;;;6.97;;
14688;SDS011;7432;48.728;9.154;2022-08-11T10:26:15;6.78;;;6.25;;
14688;SDS011;7432;48.728;9.154;2022-08-11T10:29:02;7.10;;;6.50;;
14688;SDS011;7432;48.728;9.154;2022-08-11T10:31:52;7.93;;;7.25;;
14688;SDS011;7432;48.728;9.154;2022-08-11T10:34:37;7.90;;;7.50;;
14688;SDS011;7432;48.728;9.154;2022-08-11T10:37:04;8.50;;;7.90;;
14688;SDS011;7432;48.728;9.154;2022-08-11T10:39:36;7.88;;;7.15;;
14688;SDS011;7432;48.728;9.154;2022-08-11T10:42:05;7.60;;;6.82;;
14688;SDS011;7432;48.728;9.154;2022-08-11T10:44:50;7.03;;;6.63;;
14688;SDS011;7432;48.728;9.154;2022-08-11T10:47:20;7.47;;;7.00;;
14688;SDS011;7432;48.728;9.154;2022-08-11T10:49:59;7.72;;;7.10;;
14688;SDS011;7432;48.728;9.154;2022-08-11T10:52:44;8.02;;;7.35;;
14688;SDS011;7432;48.728;9.154;2022-08-11T10:55:30;7.25;;;6.75;;
14688;SDS011;7432;48.728;9.154;2022-08-11T10:58:14;7.63;;;7.03;;
14688;SDS011;7432;48.728;9.154;2022-08-11T11:01:00;6.35;;;6.05;;
14688;SDS011;7432;48.728;9.154;2022-08-11T11:03:30;7.10;;;6.70;;
14688;SDS011;7432;48.728;9.154;2022-08-11T11:06:00;7.60;;;6.90;;
14688;SDS011;7432;48.728;9.154;2022-08-11T11:08:35;7.00;;;6.60;;
14688;SDS011;7432;48.728;9.154;2022-08-11T11:11:20;8.73;;;7.20;;
14688;SDS011;7432;48.728;9.154;2022-08-11T11:14:09;7.68;;;6.93;;
14688;SDS011;7432;48.728;9.154;2022-08-11T11:16:59;6.20;;;5.80;;
14688;SDS011;7432;48.728;9.154;2022-08-11T11:19:45;7.47;;;6.97;;
14688;SDS011;7432;48.728;9.154;2022-08-11T11:22:14;6.72;;;6.15;;
14688;SDS011;7432;48.728;9.154;2022-08-11T11:25:01;7.38;;;6.68;;
14688;SDS011;7432;48.728;9.154;2022-08-11T11:27:35;7.35;;;6.95;;
14688;SDS011;7432;48.728;9.154;2022-08-11T11:30:12;7.78;;;7.05;;
14688;SDS011;7432;48.728;9.154;2022-08-11T11:32:43;6.38;;;5.88;;
14688;SDS011;7432;48.728;9.154;2022-08-11T11:35:25;8.00;;;7.18;;
14688;SDS011;7432;48.728;9.154;2022-08-11T11:38:01;7.22;;;6.82;;
14688;SDS011;7432;48.728;9.154;2022-08-11T11:40:33;6.93;;;6.53;;
14688;SDS011;7432;48.728;9.154;2022-08-11T11:43:01;6.45;;;6.00;;
14688;SDS011;7432;48.728;9.154;2022-08-11T11:45:29;7.25;;;6.75;;
14688;SDS011;7432;48.728;9.154;2022-08-11T11:47:56;7.72;;;7.13;;
14688;SDS011;7432;48.728;9.154;2022-08-11T11:50:26;7.68;;;7.07;;
14688;SDS011;7432;48.728;9.154;2022-08-11T11:52:54;7.95;;;7.18;;
14688;SDS011;7432;48.728;9.154;2022-08-11T11:55:23;8.13;;;7.47;;
14688;SDS011;7432;48.728;9.154;2022-08-11T11:57:51;7.38;;;6.97;;
14688;SDS011;7432;48.728;9.154;2022-08-11T12:00:36;7.25;;;6.82;;
14688;SDS011;7432;48.728;9.154;2022-08-11T12:03:20;7.82;;;7.38;;
14688;SDS011;7432;48.728;9.154;2022-08-11T12:05:50;8.35;;;7.80;;
14688;SDS011;7432;48.728;9.154;2022-08-11T12:08:17;9.15;;;6.80;;
14688;SDS011;7432;48.728;9.154;2022-08-11T12:10:46;7.72;;;7.20;;
14688;SDS011;7432;48.728;9.154;2022-08-11T12:13:15;7.30;;;6.88;;
14688;SDS011;7432;48.728;9.154;2022-08-11T12:16:00;7.90;;;7.47;;
14688;SDS011;7432;48.728;9.154;2022-08-11T12:18:30;8.05;;;7.65;;
14688;SDS011;7432;48.728;9.154;2022-08-11T12:20:59;7.25;;;6.80;;
14688;SDS011;7432;48.728;9.154;2022-08-11T12:23:27;7.90;;;7.45;;
14688;SDS011;7432;48.728;9.154;2022-08-11T12:26:12;7.93;;;7.43;;
14688;SDS011;7432;48.728;9.154;2022-08-11T12:28:58;8.30;;;7.60;;
14688;SDS011;7432;48.728;9.154;2022-08-11T12:31:25;8.25;;;7.57;;
14688;SDS011;7432;48.728;9.154;2022-08-11T12:33:58;7.35;;;6.95;;
14688;SDS011;7432;48.728;9.154;2022-08-11T12:36:27;8.13;;;7.50;;
14688;SDS011;7432;48.728;9.154;2022-08-11T12:38:57;8.05;;;7.55;;
14688;SDS011;7432;48.728;9.154;2022-08-11T12:41:25;8.00;;;7.45;;
14688;SDS011;7432;48.728;9.154;2022-08-11T12:44:09;8.18;;;7.68;;
14688;SDS011;7432;48.728;9.154;2022-08-11T12:46:55;7.72;;;7.22;;
14688;SDS011;7432;48.728;9.154;2022-08-11T12:49:23;8.13;;;7.63;;
14688;SDS011;7432;48.728;9.154;2022-08-11T12:52:13;8.05;;;7.47;;
14688;SDS011;7432;48.728;9.154;2022-08-11T12:54:52;7.93;;;7.22;;
14688;SDS011;7432;48.728;9.154;2022-08-11T12:57:25;7.38;;;6.80;;
14688;SDS011;7432;48.728;9.154;2022-08-11T13:00:25;7.47;;;6.70;;
14688;SDS011;7432;48.728;9.154;2022-08-11T13:03:11;7.78;;;7.28;;
14688;SDS011;7432;48.728;9.154;2022-08-11T13:05:58;7.72;;;7.07;;
14688;SDS011;7432;48.728;9.154;2022-08-11T13:15:18;7.70;;;7.10;;
14688;SDS011;7432;48.728;9.154;2022-08-11T13:17:46;7.95;;;7.35;;
14688;SDS011;7432;48.728;9.154;2022-08-11T13:20:16;7.75;;;7.35;;
14688;SDS011;7432;48.728;9.154;2022-08-11T13:22:45;8.07;;;7.60;;
14688;SDS011;7432;48.728;9.154;2022-08-11T13:25:14;7.78;;;7.28;;
14688;SDS011;7432;48.728;9.154;2022-08-11T13:27:44;8.15;;;7.70;;
14688;SDS011;7432;48.728;9.154;2022-08-11T13:30:12;8.60;;;7.90;;
14688;SDS011;7432;48.728;9.154;2022-08-11T13:32:57;7.85;;;7.35;;
14688;SDS011;7432;48.728;9.154;2022-08-11T13:35:25;7.35;;;6.95;;
14688;SDS011;7432;48.728;9.154;2022-08-11T13:37:53;7.78;;;7.28;;
14688;SDS011;7432;48.728;9.154;2022-08-11T13:40:20;7.68;;;7.07;;
14688;SDS011;7432;48.728;9.154;2022-08-11T13:42:50;7.82;;;7.32;;
14688;SDS011;7432;48.728;9.154;2022-08-11T13:45:18;8.18;;;7.57;;
14688;SDS011;7432;48.728;9.154;2022-08-11T13:47:48;7.70;;;7.20;;
14688;SDS011;7432;48.728;9.154;2022-08-11T13:50:16;7.70;;;7.30;;
14688;SDS011;7432;48.728;9.154;2022-08-11T13:52:43;7.63;;;7.13;;
14688;SDS011;7432;48.728;9.154;2022-08-11T13:55:13;7.68;;;7.00;;
14688;SDS011;7432;48.728;9.154;2022-08-11T13:57:46;7.38;;;6.93;;
14688;SDS011;7432;48.728;9.154;2022-08-11T14:00:16;7.53;;;7.05;;
14688;SDS011;7432;48.728;9.154;2022-08-11T14:02:43;7.55;;;7.05;;
14688;SDS011;7432;48.728;9.154;2022-08-11T14:05:14;7.90;;;7.30;;
14688;SDS011;7432;48.728;9.154;2022-08-11T14:07:45;7.40;;;6.90;;
14688;SDS011;7432;48.728;9.154;2022-08-11T14:10:15;7.70;;;7.30;;
14688;SDS011;7432;48.728;9.154;2022-08-11T14:12:45;7.72;;;7.03;;
14688;SDS011;7432;48.728;9.154;2022-08-11T14:15:41;7.22;;;6.78;;
14688;SDS011;7432;48.728;9.154;2022-08-11T14:18:11;7.72;;;7.00;;
14688;SDS011;7432;48.728;9.154;2022-08-11T14:20:42;7.80;;;7.00;;
14688;SDS011;7432;48.728;9.154;2022-08-11T14:23:27;7.50;;;7.00;;
14688;SDS011;7432;48.728;9.154;2022-08-11T14:25:58;7.18;;;6.70;;
14688;SDS011;7432;48.728;9.154;2022-08-11T14:28:43;6.35;;;5.95;;
14688;SDS011;7432;48.728;9.154;2022-08-11T14:31:12;7.75;;;7.25;;
14688;SDS011;7432;48.728;9.154;2022-08-11T14:33:40;7.65;;;7.05;;
14688;SDS011;7432;48.728;9.154;2022-08-11T14:36:08;7.30;;;6.90;;
14688;SDS011;7432;48.728;9.154;2022-08-11T14:38:36;7.38;;;6.90;;
14688;SDS011;7432;48.728;9.154;2022-08-11T14:41:05;6.45;;;6.05;;
14688;SDS011;7432;48.728;9.154;2022-08-11T14:43:50;7.38;;;6.97;;
14688;SDS011;7432;48.728;9.154;2022-08-11T14:46:37;7.22;;;6.63;;
14688;SDS011;7432;48.728;9.154;2022-08-11T14:49:22;6.90;;;6.50;;
14688;SDS011;7432;48.728;9.154;2022-08-11T14:51:50;8.18;;;7.40;;
14688;SDS011;7432;48.728;9.154;2022-08-11T14:54:19;7.80;;;7.18;;
14688;SDS011;7432;48.728;9.154;2022-08-11T14:57:05;7.25;;;6.85;;
14688;SDS011;7432;48.728;9.154;2022-08-11T14:59:32;7.20;;;6.70;;
14688;SDS011;7432;48.728;9.154;2022-08-11T15:02:01;6.38;;;5.95;;
14688;SDS011;7432;48.728;9.154;2022-08-11T15:04:46;6.60;;;6.20;;
14688;SDS011;7432;48.728;9.154;2022-08-11T15:07:12;6.55;;;6.15;;
14688;SDS011;7432;48.728;9.154;2022-08-11T15:09:39;7.65;;;6.72;;
14688;SDS011;7432;48.728;9.154;2022-08-11T15:12:08;6.40;;;6.10;;
14688;SDS011;7432;48.728;9.154;2022-08-11T15:14:40;6.70;;;6.10;;
14688;SDS011;7432;48.728;9.154;2022-08-11T15:17:27;6.72;;;6.30;;
14688;SDS011;7432;48.728;9.154;2022-08-11T15:19:57;7.15;;;6.57;;
14688;SDS011;7432;48.728;9.154;2022-08-11T15:22:45;6.47;;;5.97;;
14688;SDS011;7432;48.728;9.154;2022-08-11T15:25:29;7.10;;;6.60;;
14688;SDS011;7432;48.728;9.154;2022-08-11T15:27:58;6.93;;;6.40;;
14688;SDS011;7432;48.728;9.154;2022-08-11T15:30:44;8.00;;;6.70;;
14688;SDS011;7432;48.728;9.154;2022-08-11T15:33:31;6.82;;;6.35;;
14688;SDS011;7432;48.728;9.154;2022-08-11T15:36:18;7.10;;;6.45;;
14688;SDS011;7432;48.728;9.154;2022-08-11T15:39:05;6.45;;;6.05;;
14688;SDS011;7432;48.728;9.154;2022-08-11T15:41:38;6.82;;;6.30;;
14688;SDS011;7432;48.728;9.154;2022-08-11T15:44:26;6.90;;;6.40;;
14688;SDS011;7432;48.728;9.154;2022-08-11T15:47:13;6.70;;;6.30;;
14688;SDS011;7432;48.728;9.154;2022-08-11T15:49:44;6.70;;;6.30;;
14688;SDS011;7432;48.728;9.154;2022-08-11T15:55:42;6.97;;;6.57;;
14688;SDS011;7432;48.728;9.154;2022-08-11T15:58:10;6.18;;;5.75;;
14688;SDS011;7432;48.728;9.154;2022-08-11T16:00:56;6.18;;;5.65;;
14688;SDS011;7432;48.728;9.154;2022-08-11T16:03:44;6.22;;;5.82;;
14688;SDS011;7432;48.728;9.154;2022-08-11T16:06:35;6.13;;;5.75;;
14688;SDS011;7432;48.728;9.154;2022-08-11T16:09:04;5.95;;;5.55;;
14688;SDS011;7432;48.728;9.154;2022-08-11T16:11:33;5.85;;;5.55;;
14688;SDS011;7432;48.728;9.154;2022-08-11T16:14:01;6.13;;;5.68;;
14688;SDS011;7432;48.728;9.154;2022-08-11T16:16:47;6.40;;;5.90;;
14688;SDS011;7432;48.728;9.154;2022-08-11T16:19:17;6.38;;;5.75;;
14688;SDS011;7432;48.728;9.154;2022-08-11T16:21:46;6.28;;;5.88;;
14688;SDS011;7432;48.728;9.154;2022-08-11T16:24:15;6.38;;;5.97;;
14688;SDS011;7432;48.728;9.154;2022-08-11T16:26:44;6.47;;;5.97;;
14688;SDS011;7432;48.728;9.154;2022-08-11T16:29:12;6.35;;;5.95;;
14688;SDS011;7432;48.728;9.154;2022-08-11T16:31:40;6.50;;;6.10;;
14688;SDS011;7432;48.728;9.154;2022-08-11T16:34:27;5.90;;;5.50;;
14688;SDS011;7432;48.728;9.154;2022-08-11T16:37:13;6.35;;;5.85;;
14688;SDS011;7432;48.728;9.154;2022-08-11T16:39:58;6.55;;;6.05;;
14688;SDS011;7432;48.728;9.154;2022-08-11T16:42:24;5.47;;;5.07;;
14688;SDS011;7432;48.728;9.154;2022-08-11T16:45:08;5.90;;;5.45;;
14688;SDS011;7432;48.728;9.154;2022-08-11T16:47:53;6.07;;;5.55;;
14688;SDS011;7432;48.728;9.154;2022-08-11T16:50:19;6.43;;;6.10;;
14688;SDS011;7432;48.728;9.154;2022-08-11T16:52:48;6.30;;;5.90;;
14688;SDS011;7432;48.728;9.154;2022-08-11T16:55:16;5.90;;;5.60;;
14688;SDS011;7432;48.728;9.154;2022-08-11T16:57:43;5.38;;;5.07;;
14688;SDS011;7432;48.728;9.154;2022-08-11T17:00:28;6.22;;;5.57;;